sim
Sign-in with your pilot id or email,
or register
Callsign
Passwort

Schedule Details

Flight Number: DLH2482
Departure: Munich Airport (EDDM) at 18:45
Arrival: London Heathrow Airport (EGLL) at 20:55
Route: Lufthansa Passenger Schedule. Enter filed route here before submitting Pirep.

Weather Information
Getting current METAR information for EDDM 222050Z 27004KT CAVOK 15/14 Q1010 NOSIG
Getting current METAR information for EGLL 222050Z AUTO 21008KT 9999 FEW019 OVC024 18/15 Q1006 NOSIG

Schedule Frequency

Route Map